createdAt,value
2018-08-09T00:01:36.488Z,69.98
2018-08-09T00:04:04.470Z,69.88
2018-08-09T00:06:32.505Z,70.62
2018-08-09T00:09:00.534Z,70.87
2018-08-09T00:11:28.876Z,71.31
2018-08-09T00:13:56.940Z,70.16
2018-08-09T00:16:24.942Z,71.27
2018-08-09T00:18:53.332Z,71.88
2018-08-09T00:21:21.316Z,70.80
2018-08-09T00:23:49.432Z,70.08
2018-08-09T00:26:17.429Z,70.41
2018-08-09T00:28:45.405Z,70.50
2018-08-09T00:31:13.416Z,71.59
2018-08-09T00:33:41.590Z,70.69
2018-08-09T00:36:09.588Z,71.24
2018-08-09T00:38:37.614Z,72.24
2018-08-09T00:41:05.600Z,72.25
2018-08-09T00:43:33.615Z,73.33
2018-08-09T00:46:01.621Z,72.15
2018-08-09T00:48:29.619Z,73.44
2018-08-09T00:50:57.658Z,72.63
2018-08-09T00:53:25.661Z,73.87
2018-08-09T00:55:53.732Z,73.19
2018-08-09T00:58:21.751Z,72.68
2018-08-09T01:00:49.780Z,72.87
2018-08-09T01:03:17.793Z,72.01
2018-08-09T01:05:45.798Z,71.79
2018-08-09T01:08:13.787Z,71.43
2018-08-09T01:10:41.841Z,70.98
2018-08-09T01:13:10.973Z,72.00
2018-08-09T01:15:38.972Z,72.08
2018-08-09T01:18:07.952Z,72.73
2018-08-09T01:20:36.038Z,71.95
2018-08-09T01:23:04.034Z,72.77
2018-08-09T01:25:32.038Z,71.14
2018-08-09T01:28:00.170Z,71.70
2018-08-09T01:30:28.162Z,72.17
2018-08-09T01:32:56.267Z,72.03
2018-08-09T01:35:24.208Z,70.72
2018-08-09T01:37:52.240Z,70.66
2018-08-09T01:40:20.233Z,71.51
2018-08-09T01:42:59.943Z,71.25
2018-08-09T01:45:27.934Z,72.32
2018-08-09T01:47:55.948Z,72.03
2018-08-09T01:50:23.971Z,71.96
2018-08-09T01:52:51.988Z,71.56
2018-08-09T01:55:20.044Z,71.40
2018-08-09T01:57:48.222Z,71.39
2018-08-09T02:00:16.248Z,70.23
2018-08-09T02:02:44.289Z,70.62
2018-08-09T02:05:12.336Z,71.12
2018-08-09T02:07:40.512Z,70.62
2018-08-09T02:10:08.600Z,69.31
2018-08-09T02:12:36.606Z,70.71
2018-08-09T02:15:04.876Z,69.49
2018-08-09T02:17:32.880Z,69.43
2018-08-09T02:20:00.880Z,69.37
2018-08-09T02:22:28.931Z,69.45
2018-08-09T02:24:57.109Z,70.91
2018-08-09T02:27:25.157Z,69.99
2018-08-09T02:29:53.185Z,70.42
2018-08-09T02:32:21.231Z,69.56
2018-08-09T02:34:49.221Z,70.13
2018-08-09T02:37:17.249Z,70.01
2018-08-09T02:39:45.248Z,70.49
2018-08-09T02:42:13.314Z,70.93
2018-08-09T02:44:41.417Z,70.75
2018-08-09T02:47:09.409Z,69.98
2018-08-09T02:49:37.406Z,69.68
2018-08-09T02:52:05.442Z,70.36
2018-08-09T02:54:33.453Z,71.77
2018-08-09T02:57:01.465Z,71.86
2018-08-09T02:59:29.468Z,72.23
2018-08-09T03:01:57.489Z,72.53
2018-08-09T03:04:25.523Z,72.24
2018-08-09T03:06:53.572Z,72.33
2018-08-09T03:09:21.566Z,73.11
2018-08-09T03:11:49.566Z,73.55
2018-08-09T03:14:17.557Z,74.94
2018-08-09T03:16:45.609Z,74.41
2018-08-09T03:19:13.637Z,74.81
2018-08-09T03:21:41.652Z,74.09
2018-08-09T03:24:09.772Z,73.98
2018-08-09T03:26:37.765Z,73.96
2018-08-09T03:29:05.845Z,74.31
2018-08-09T03:31:33.851Z,73.30
2018-08-09T03:34:01.840Z,74.00
2018-08-09T03:36:29.832Z,73.29
2018-08-09T03:38:57.950Z,74.60
2018-08-09T03:41:25.937Z,74.52
2018-08-09T03:43:53.960Z,74.04
2018-08-09T03:46:22.088Z,74.59
2018-08-09T03:48:50.173Z,75.64
2018-08-09T03:51:19.271Z,74.86
2018-08-09T03:53:47.824Z,75.33
2018-08-09T03:56:15.816Z,74.77
2018-08-09T03:58:43.836Z,74.03
2018-08-09T04:01:11.892Z,75.10
2018-08-09T04:03:39.936Z,75.07
2018-08-09T04:06:09.045Z,73.78
2018-08-09T04:08:37.080Z,74.75
2018-08-09T04:11:05.124Z,74.64
2018-08-09T04:13:33.128Z,74.31
2018-08-09T04:16:01.117Z,74.60
2018-08-09T04:18:29.133Z,75.35
2018-08-09T04:20:57.157Z,74.75
2018-08-09T04:23:25.165Z,75.70
2018-08-09T04:25:53.185Z,75.83
2018-08-09T04:28:21.201Z,75.76
2018-08-09T04:30:49.198Z,75.27
2018-08-09T04:33:17.227Z,76.06
2018-08-09T04:35:45.259Z,75.00
2018-08-09T04:38:13.393Z,75.74
2018-08-09T04:40:41.440Z,76.04
2018-08-09T04:43:09.471Z,76.40
2018-08-09T04:45:37.575Z,76.56
2018-08-09T04:48:05.804Z,76.59
2018-08-09T04:50:33.992Z,76.76
2018-08-09T04:53:02.272Z,76.90
2018-08-09T04:55:30.341Z,76.69
2018-08-09T04:57:58.371Z,76.15
2018-08-09T05:00:26.348Z,75.77
2018-08-09T05:02:54.465Z,76.12
2018-08-09T05:05:22.462Z,75.68
2018-08-09T05:07:50.536Z,74.59
2018-08-09T05:10:18.587Z,74.54
2018-08-09T05:12:46.524Z,74.66
2018-08-09T05:15:14.509Z,74.80
2018-08-09T05:17:42.510Z,75.25
2018-08-09T05:20:10.513Z,74.50
2018-08-09T05:22:38.521Z,72.08
2018-08-09T05:25:06.997Z,70.85
2018-08-09T05:27:35.057Z,69.81
2018-08-09T05:30:03.861Z,68.00
2018-08-09T05:32:31.848Z,66.40
2018-08-09T05:34:59.921Z,64.40
2018-08-09T05:37:27.905Z,64.13
2018-08-09T05:39:55.885Z,64.55
2018-08-09T05:42:23.884Z,64.86
2018-08-09T05:44:51.943Z,64.60
2018-08-09T05:47:19.995Z,64.21
2018-08-09T05:49:47.992Z,64.56
2018-08-09T05:52:15.988Z,62.60
2018-08-09T05:54:44.032Z,63.91
2018-08-09T05:57:12.056Z,61.51
2018-08-09T05:59:40.064Z,58.86
2018-08-09T06:02:08.171Z,55.35
2018-08-09T06:04:36.253Z,52.77
2018-08-09T06:07:04.251Z,49.55
2018-08-09T06:09:32.273Z,47.27
2018-08-09T06:12:00.267Z,45.01
2018-08-09T06:14:28.260Z,44.26
2018-08-09T06:16:56.280Z,42.19
2018-08-09T06:19:24.276Z,40.31
2018-08-09T06:21:52.257Z,39.60
2018-08-09T06:24:20.297Z,37.69
2018-08-09T06:26:48.307Z,38.80
2018-08-09T06:29:16.304Z,37.19
2018-08-09T06:31:44.309Z,36.51
2018-08-09T06:34:12.326Z,37.30
2018-08-09T06:36:40.309Z,37.26
2018-08-09T06:39:08.741Z,38.56
2018-08-09T06:41:37.004Z,38.63
2018-08-09T06:44:05.000Z,39.22
2018-08-09T06:46:32.985Z,38.77
2018-08-09T06:49:01.116Z,38.38
2018-08-09T06:51:29.136Z,38.25
2018-08-09T06:53:57.164Z,40.04
2018-08-09T06:56:25.591Z,41.44
2018-08-09T06:58:53.761Z,42.65
2018-08-09T07:01:21.816Z,46.16
2018-08-09T07:03:49.842Z,45.16
2018-08-09T07:06:17.895Z,45.03
2018-08-09T07:08:45.976Z,47.58
2018-08-09T07:11:14.005Z,48.26
2018-08-09T07:13:42.096Z,49.37
2018-08-09T07:16:10.118Z,48.69
2018-08-09T07:18:38.139Z,47.25
2018-08-09T07:21:06.436Z,43.81
2018-08-09T07:23:34.577Z,43.07
2018-08-09T07:26:02.638Z,43.43
2018-08-09T07:28:30.656Z,44.56
2018-08-09T07:30:58.696Z,44.10
2018-08-09T07:33:27.058Z,42.88
2018-08-09T07:35:55.044Z,41.13
2018-08-09T07:38:23.048Z,40.75
2018-08-09T07:40:51.036Z,40.57
2018-08-09T07:43:19.136Z,39.40
2018-08-09T07:45:47.132Z,38.64
2018-08-09T07:48:15.221Z,39.06
2018-08-09T07:50:43.220Z,39.36
2018-08-09T07:53:11.227Z,38.51
2018-08-09T07:55:39.287Z,38.49
2018-08-09T07:58:07.337Z,38.21
2018-08-09T08:00:35.344Z,38.23
2018-08-09T08:03:03.342Z,38.86
2018-08-09T08:05:31.428Z,39.12
2018-08-09T08:07:59.408Z,38.92
2018-08-09T08:10:27.417Z,38.39
2018-08-09T08:12:55.429Z,40.81
2018-08-09T08:15:23.473Z,42.84
2018-08-09T08:17:51.457Z,41.96
2018-08-09T08:20:19.448Z,40.52
2018-08-09T08:22:47.425Z,38.89
2018-08-09T08:25:15.426Z,38.67
2018-08-09T08:27:43.472Z,39.13
2018-08-09T08:30:13.184Z,38.14
2018-08-09T08:32:41.961Z,38.55
2018-08-09T08:35:10.444Z,39.00
2018-08-09T08:37:38.820Z,38.05
2018-08-09T08:40:07.229Z,37.87
2018-08-09T08:42:35.477Z,38.78
2018-08-09T08:45:04.037Z,39.28
2018-08-09T08:47:32.033Z,39.18
2018-08-09T08:50:00.018Z,39.11
2018-08-09T08:52:28.052Z,39.80
2018-08-09T08:54:56.049Z,39.40
2018-08-09T08:57:24.093Z,38.98
2018-08-09T08:59:52.118Z,40.71
2018-08-09T09:02:20.104Z,40.44
2018-08-09T09:04:48.091Z,40.18
2018-08-09T09:07:16.158Z,39.53
2018-08-09T09:09:44.147Z,39.07
2018-08-09T09:12:12.148Z,38.98
2018-08-09T09:14:40.134Z,39.35
2018-08-09T09:17:08.192Z,39.73
2018-08-09T09:19:36.185Z,40.67
2018-08-09T09:22:04.321Z,40.40
2018-08-09T09:24:32.311Z,41.50
2018-08-09T09:27:00.350Z,40.17
2018-08-09T09:29:28.285Z,40.78
2018-08-09T09:31:56.286Z,39.73
2018-08-09T09:34:24.321Z,40.17
2018-08-09T09:36:52.312Z,40.51
2018-08-09T09:39:21.304Z,40.71
2018-08-09T09:41:49.308Z,41.31
2018-08-09T09:44:17.284Z,40.15
2018-08-09T09:46:45.286Z,40.46
2018-08-09T09:49:13.325Z,40.54
2018-08-09T09:51:41.313Z,39.98
2018-08-09T09:54:09.474Z,41.71
2018-08-09T09:56:37.840Z,41.16
2018-08-09T09:59:05.850Z,41.92
2018-08-09T10:01:34.663Z,41.63
2018-08-09T10:04:03.589Z,42.12
2018-08-09T10:06:32.027Z,42.80
2018-08-09T10:09:00.074Z,41.17
2018-08-09T10:11:28.098Z,42.52
2018-08-09T10:13:56.129Z,41.59
2018-08-09T10:16:24.237Z,41.79
2018-08-09T10:18:52.189Z,43.75
2018-08-09T10:21:20.294Z,44.83
2018-08-09T10:23:48.300Z,44.60
2018-08-09T10:26:16.305Z,44.77
2018-08-09T10:28:44.325Z,43.83
2018-08-09T10:31:12.339Z,44.87
2018-08-09T10:33:40.348Z,46.16
2018-08-09T10:36:08.438Z,43.35
2018-08-09T10:38:36.480Z,43.78
2018-08-09T10:41:05.151Z,46.51
2018-08-09T10:43:33.181Z,49.48
2018-08-09T10:46:01.532Z,53.41
2018-08-09T10:48:29.820Z,55.40
2018-08-09T10:50:57.813Z,56.59
2018-08-09T10:53:25.868Z,58.48
2018-08-09T10:55:53.885Z,61.13
2018-08-09T10:58:21.876Z,63.83
2018-08-09T11:00:49.908Z,64.79
2018-08-09T11:03:17.912Z,64.96
2018-08-09T11:05:45.984Z,62.32
2018-08-09T11:08:13.976Z,59.04
2018-08-09T11:10:41.988Z,60.63
2018-08-09T11:13:09.996Z,59.95
2018-08-09T11:15:38.062Z,61.09
2018-08-09T11:18:06.060Z,59.41
2018-08-09T11:20:34.121Z,60.60
2018-08-09T11:23:02.510Z,58.10
2018-08-09T11:25:30.527Z,54.65
2018-08-09T11:27:58.535Z,52.82
2018-08-09T11:30:26.545Z,51.50
2018-08-09T11:32:54.556Z,51.83
2018-08-09T11:35:22.864Z,54.84
2018-08-09T11:37:50.956Z,52.08
2018-08-09T11:40:18.957Z,53.25
2018-08-09T11:42:46.996Z,50.36
2018-08-09T11:45:15.031Z,50.80
2018-08-09T11:47:43.048Z,50.04
2018-08-09T11:50:11.368Z,49.14
2018-08-09T11:52:39.420Z,47.49
2018-08-09T11:55:07.585Z,47.35
2018-08-09T11:57:35.601Z,49.20
2018-08-09T12:00:06.475Z,49.20
2018-08-09T12:02:34.575Z,48.52
2018-08-09T12:05:02.565Z,50.52
2018-08-09T12:07:30.580Z,49.81
2018-08-09T12:09:58.792Z,48.68
2018-08-09T12:12:26.830Z,50.02
2018-08-09T12:14:54.845Z,49.43
2018-08-09T12:17:22.868Z,45.79
2018-08-09T12:19:50.880Z,44.23
2018-08-09T12:22:18.880Z,44.91
2018-08-09T12:24:46.924Z,46.42
2018-08-09T12:27:14.953Z,42.71
2018-08-09T12:29:43.080Z,41.55
2018-08-09T12:32:11.133Z,40.07
2018-08-09T12:34:39.188Z,39.93
2018-08-09T12:37:07.415Z,40.26
2018-08-09T12:39:35.716Z,40.45
2018-08-09T12:42:03.729Z,39.90
2018-08-09T12:44:31.812Z,39.83
2018-08-09T12:46:59.828Z,40.73
2018-08-09T12:49:27.844Z,39.42
2018-08-09T12:51:55.860Z,38.92
2018-08-09T12:54:23.923Z,39.38
2018-08-09T12:56:51.921Z,39.16
2018-08-09T12:59:19.922Z,37.75
2018-08-09T13:01:47.960Z,38.02
2018-08-09T13:04:16.000Z,37.94
2018-08-09T13:06:44.100Z,37.96
2018-08-09T13:09:12.402Z,38.77
2018-08-09T13:11:40.458Z,37.53
2018-08-09T13:14:08.613Z,38.31
2018-08-09T13:16:36.603Z,38.55
2018-08-09T13:19:04.629Z,38.37
2018-08-09T13:21:32.736Z,40.52
2018-08-09T13:24:00.742Z,39.21
2018-08-09T13:26:28.748Z,39.37
2018-08-09T13:28:56.763Z,39.50
2018-08-09T13:31:24.804Z,38.54
2018-08-09T13:33:52.969Z,37.93
2018-08-09T13:36:21.080Z,38.61
2018-08-09T13:38:49.132Z,38.35
2018-08-09T13:41:17.129Z,38.33
2018-08-09T13:43:45.205Z,37.52
2018-08-09T13:46:13.201Z,39.30
2018-08-09T13:48:41.272Z,37.02
2018-08-09T13:51:09.280Z,37.55
2018-08-09T13:53:37.301Z,38.60
2018-08-09T13:56:05.381Z,38.19
2018-08-09T13:58:33.465Z,39.08
2018-08-09T14:01:01.449Z,37.39
2018-08-09T14:03:29.509Z,36.78
2018-08-09T14:05:57.668Z,37.20
2018-08-09T14:08:25.681Z,38.49
2018-08-09T14:10:53.733Z,38.89
2018-08-09T14:13:21.746Z,38.82
2018-08-09T14:15:49.740Z,38.22
2018-08-09T14:18:17.776Z,38.44
2018-08-09T14:20:45.781Z,38.54
2018-08-09T14:23:13.780Z,37.51
2018-08-09T14:25:41.864Z,37.97
2018-08-09T14:28:09.860Z,37.77
2018-08-09T14:30:37.948Z,36.97
2018-08-09T14:33:06.488Z,38.16
2018-08-09T14:35:34.505Z,37.85
2018-08-09T14:38:02.577Z,37.27
2018-08-09T14:40:30.573Z,37.63
2018-08-09T14:42:58.597Z,37.06
2018-08-09T14:45:26.633Z,37.20
2018-08-09T14:47:54.663Z,37.45
2018-08-09T14:50:22.721Z,37.90
2018-08-09T14:52:50.752Z,37.73
2018-08-09T14:55:18.769Z,36.84
2018-08-09T14:57:46.772Z,38.60
2018-08-09T15:00:20.740Z,38.12
2018-08-09T15:02:48.904Z,38.23
2018-08-09T15:05:17.344Z,37.62
2018-08-09T15:07:45.587Z,37.79
2018-08-09T15:10:14.354Z,38.40
2018-08-09T15:12:42.350Z,37.57
2018-08-09T15:15:11.180Z,38.31
2018-08-09T15:17:39.326Z,38.82
2018-08-09T15:20:09.296Z,38.28
2018-08-09T15:22:37.803Z,38.00
2018-08-09T15:25:06.677Z,38.23
2018-08-09T15:27:34.836Z,38.08
2018-08-09T15:30:02.856Z,37.89
2018-08-09T15:32:30.893Z,38.11
2018-08-09T15:34:58.920Z,39.07
2018-08-09T15:37:26.933Z,39.15
2018-08-09T15:39:54.941Z,38.01
2018-08-09T15:42:22.985Z,38.91
2018-08-09T15:44:51.026Z,39.04
2018-08-09T15:47:19.169Z,39.07
2018-08-09T15:49:47.092Z,39.00
2018-08-09T15:52:15.132Z,37.95
2018-08-09T15:54:43.124Z,39.06
2018-08-09T15:57:11.113Z,38.98
2018-08-09T15:59:39.124Z,39.29
2018-08-09T16:02:07.202Z,39.17
2018-08-09T16:04:35.189Z,39.14
2018-08-09T16:07:03.269Z,39.72
2018-08-09T16:09:31.277Z,39.51
2018-08-09T16:11:59.348Z,39.42
2018-08-09T16:14:27.357Z,41.85
2018-08-09T16:16:55.353Z,41.69
2018-08-09T16:19:23.457Z,43.06
2018-08-09T16:21:51.473Z,44.06
2018-08-09T16:24:19.477Z,46.59
2018-08-09T16:26:47.461Z,45.75
2018-08-09T16:29:16.275Z,43.30
2018-08-09T16:31:44.272Z,44.32
2018-08-09T16:34:12.318Z,44.17
2018-08-09T16:36:40.428Z,43.82
2018-08-09T16:39:11.560Z,44.57
2018-08-09T16:41:39.613Z,46.22
2018-08-09T16:44:07.929Z,47.60
2018-08-09T16:46:35.960Z,46.86
2018-08-09T16:49:03.976Z,48.22
2018-08-09T16:51:32.047Z,49.76
2018-08-09T16:54:00.072Z,50.16
2018-08-09T16:56:28.175Z,50.42
2018-08-09T16:58:56.160Z,49.89
2018-08-09T17:01:24.168Z,50.49
2018-08-09T17:03:52.621Z,50.55
2018-08-09T17:06:21.064Z,50.37
2018-08-09T17:08:49.476Z,50.69
2018-08-09T17:11:17.517Z,50.83
2018-08-09T17:13:45.549Z,51.51
2018-08-09T17:16:13.612Z,51.12
2018-08-09T17:18:41.633Z,51.57
2018-08-09T17:21:09.648Z,53.88
2018-08-09T17:23:37.684Z,53.40
2018-08-09T17:26:05.700Z,52.78
2018-08-09T17:28:33.727Z,51.55
2018-08-09T17:31:01.761Z,52.94
2018-08-09T17:33:29.768Z,51.89
2018-08-09T17:35:57.828Z,52.62
2018-08-09T17:38:25.820Z,52.09
2018-08-09T17:40:53.826Z,51.48
2018-08-09T17:43:21.831Z,51.23
2018-08-09T17:45:49.809Z,51.64
2018-08-09T17:48:17.800Z,51.03
2018-08-09T17:50:45.792Z,52.07
2018-08-09T17:53:13.818Z,51.25
2018-08-09T17:55:41.804Z,52.42
2018-08-09T17:58:09.825Z,51.99
2018-08-09T18:00:37.886Z,53.11
2018-08-09T18:03:05.983Z,53.43
2018-08-09T18:05:34.035Z,53.04
2018-08-09T18:08:02.475Z,52.10
2018-08-09T18:10:33.117Z,52.90
2018-08-09T18:13:01.110Z,53.51
2018-08-09T18:15:29.922Z,52.35
2018-08-09T18:17:58.461Z,53.12
2018-08-09T18:20:29.408Z,54.35
2018-08-09T18:22:57.480Z,55.20
2018-08-09T18:25:25.575Z,55.64
2018-08-09T18:27:53.748Z,56.66
2018-08-09T18:30:21.999Z,56.37
2018-08-09T18:32:50.086Z,56.83
2018-08-09T18:35:18.960Z,56.53
2018-08-09T18:37:46.956Z,57.84
2018-08-09T18:40:16.841Z,58.00
2018-08-09T18:42:44.848Z,59.96
2018-08-09T18:45:12.913Z,59.09
2018-08-09T18:47:41.289Z,60.59
2018-08-09T18:50:14.794Z,60.59
2018-08-09T18:52:42.900Z,61.63
2018-08-09T18:55:11.760Z,60.60
2018-08-09T18:57:40.284Z,61.26
2018-08-09T19:00:15.263Z,61.21
2018-08-09T19:02:44.784Z,61.11
2018-08-09T19:05:12.784Z,61.45
2018-08-09T19:07:40.817Z,61.07
2018-08-09T19:10:10.864Z,62.21
2018-08-09T19:12:38.920Z,62.15
2018-08-09T19:15:08.315Z,62.71
2018-08-09T19:17:36.917Z,62.11
2018-08-09T19:20:06.576Z,61.99
2018-08-09T19:22:34.677Z,61.36
2018-08-09T19:25:02.829Z,62.12
2018-08-09T19:30:36.136Z,60.91
2018-08-09T19:33:04.138Z,61.85
2018-08-09T19:35:32.195Z,61.45
2018-08-09T19:38:00.241Z,61.78
2018-08-09T19:40:29.340Z,61.78
2018-08-09T19:42:57.431Z,61.61
2018-08-09T19:45:25.457Z,62.15
2018-08-09T19:47:53.482Z,61.18
2018-08-09T19:50:22.784Z,61.77
2018-08-09T19:52:50.801Z,61.39
2018-08-09T19:55:20.258Z,61.37
2018-08-09T19:57:49.119Z,61.21
2018-08-09T20:00:20.416Z,62.50
2018-08-09T20:02:49.025Z,62.08
2018-08-09T20:05:17.164Z,62.09
2018-08-09T20:07:45.155Z,63.45
2018-08-09T20:10:13.608Z,63.16
2018-08-09T20:12:41.984Z,62.26
2018-08-09T20:15:13.232Z,63.45
2018-08-09T20:17:41.513Z,62.05
2018-08-09T20:22:37.108Z,61.93
2018-08-09T20:25:06.554Z,62.36
2018-08-09T20:27:34.584Z,61.71
2018-08-09T20:30:02.612Z,61.66
2018-08-09T20:32:30.649Z,62.22
2018-08-09T20:34:58.884Z,61.40
2018-08-09T20:37:26.898Z,61.28
2018-08-09T20:39:54.912Z,62.60
2018-08-09T20:42:22.996Z,62.03
2018-08-09T20:44:51.009Z,62.07
2018-08-09T20:47:19.014Z,62.17
2018-08-09T20:49:47.073Z,62.26
2018-08-09T20:52:15.060Z,62.22
2018-08-09T20:54:43.054Z,61.66
2018-08-09T20:57:11.181Z,62.82
2018-08-09T20:59:39.268Z,62.74
2018-08-09T21:02:07.268Z,62.00
2018-08-09T21:04:35.548Z,63.09
2018-08-09T21:07:03.573Z,62.61
2018-08-09T21:09:31.644Z,62.84
2018-08-09T21:11:59.668Z,62.71
2018-08-09T21:14:27.796Z,63.36
2018-08-09T21:16:55.805Z,63.55
2018-08-09T21:19:23.820Z,63.46
2018-08-09T21:21:51.841Z,63.85
2018-08-09T21:24:19.857Z,63.28
2018-08-09T21:26:47.853Z,62.67
2018-08-09T21:29:15.909Z,62.77
2018-08-09T21:31:43.908Z,62.82
2018-08-09T21:34:12.013Z,64.15
2018-08-09T21:36:40.058Z,63.35
2018-08-09T21:39:09.538Z,63.31
2018-08-09T21:41:37.554Z,62.54
2018-08-09T21:44:05.564Z,63.20
2018-08-09T21:46:33.581Z,63.59
2018-08-09T21:49:01.937Z,63.74
2018-08-09T21:51:30.034Z,59.22
2018-08-09T21:53:58.029Z,58.21
2018-08-09T21:56:26.060Z,58.92
2018-08-09T21:58:54.057Z,58.64
2018-08-09T22:01:22.172Z,60.49
2018-08-09T22:03:50.172Z,60.68
2018-08-09T22:06:23.525Z,61.32
2018-08-09T22:08:56.897Z,61.17
2018-08-09T22:11:30.244Z,61.23
2018-08-09T22:14:03.692Z,61.62
2018-08-09T22:16:37.238Z,61.44
2018-08-09T22:19:10.881Z,61.81
2018-08-09T22:21:45.318Z,61.25
2018-08-09T22:24:13.399Z,60.97
2018-08-09T22:26:41.472Z,61.44
2018-08-09T22:29:09.561Z,62.49
2018-08-09T22:31:37.560Z,61.49
2018-08-09T22:34:05.609Z,61.95
2018-08-09T22:36:33.682Z,61.77
2018-08-09T22:39:01.682Z,61.91
2018-08-09T22:41:29.704Z,61.63
2018-08-09T22:43:57.764Z,61.84
2018-08-09T22:46:25.769Z,62.17
2018-08-09T22:48:53.773Z,63.01
2018-08-09T22:51:21.793Z,62.27
2018-08-09T22:53:49.848Z,62.94
2018-08-09T22:56:17.861Z,62.60
2018-08-09T22:58:45.943Z,62.33
2018-08-09T23:01:13.960Z,62.79
2018-08-09T23:03:42.114Z,64.22
2018-08-09T23:06:10.170Z,64.68
2018-08-09T23:08:38.169Z,64.33
2018-08-09T23:11:06.461Z,63.85
2018-08-09T23:13:34.551Z,64.19
2018-08-09T23:16:02.644Z,63.39
2018-08-09T23:18:30.692Z,63.19
2018-08-09T23:20:58.799Z,63.66
2018-08-09T23:23:26.801Z,64.66
2018-08-09T23:25:54.803Z,63.76
2018-08-09T23:28:23.944Z,64.49
2018-08-09T23:30:51.933Z,63.66
2018-08-09T23:33:22.552Z,65.15
2018-08-09T23:35:50.555Z,64.70
2018-08-09T23:38:18.567Z,65.27
2018-08-09T23:40:46.553Z,65.78
2018-08-09T23:43:14.573Z,65.27
2018-08-09T23:45:42.624Z,65.41
2018-08-09T23:48:10.624Z,65.34
2018-08-09T23:50:38.644Z,65.06
2018-08-09T23:53:06.665Z,64.59
2018-08-09T23:55:34.680Z,63.89
2018-08-09T23:58:02.732Z,63.72
